Time;durP1;ratioP1;P1;durP2;ratioP2;P2;SDS_P1;SDS_P2;PMS_P1;PMS_P2;Temp;Humidity;BMP_temperature;BMP_pressure;BME280_temperature;BME280_humidity;BME280_pressure;Samples;Min_cycle;Max_cycle;Signal;HPM_P1;HPM_P2
2022/07/06 00:02:19;;;;;;;4.63;4.22;;;19.20;99.90;;;;;;5110762;28;20208;-63
2022/07/06 00:04:46;;;;;;;5.35;3.83;;;19.20;99.90;;;;;;5108911;28;20352;-65
2022/07/06 00:07:13;;;;;;;4.28;3.95;;;19.10;99.90;;;;;;5111058;28;20224;-64
2022/07/06 00:09:40;;;;;;;4.38;3.90;;;19.10;99.90;;;;;;5110943;28;20238;-64
2022/07/06 00:12:08;;;;;;;4.82;4.15;;;19.00;99.90;;;;;;5109910;28;20208;-65
2022/07/06 00:14:36;;;;;;;3.92;3.60;;;19.00;99.90;;;;;;5110229;28;20238;-65
2022/07/06 00:17:03;;;;;;;5.53;4.03;;;18.90;99.90;;;;;;5111205;28;20211;-64
2022/07/06 00:19:30;;;;;;;5.28;3.90;;;18.90;99.90;;;;;;5111158;28;20574;-65
2022/07/06 00:21:56;;;;;;;4.35;3.95;;;18.90;99.90;;;;;;5108484;28;20200;-65
2022/07/06 00:24:23;;;;;;;4.45;4.05;;;18.90;99.90;;;;;;5110768;28;20215;-65
2022/07/06 00:26:50;;;;;;;5.05;3.70;;;18.90;99.90;;;;;;5110701;28;20253;-66
2022/07/06 00:29:17;;;;;;;5.35;4.07;;;18.80;99.90;;;;;;5110152;28;20551;-65
2022/07/06 00:31:45;;;;;;;4.30;3.95;;;18.80;99.90;;;;;;5110147;28;20208;-65
2022/07/06 00:34:12;;;;;;;5.28;4.78;;;18.80;99.90;;;;;;5111307;28;20204;-66
2022/07/06 00:36:39;;;;;;;4.05;3.75;;;18.80;99.90;;;;;;5110694;28;20680;-65
2022/07/06 00:39:05;;;;;;;4.40;4.00;;;18.80;99.90;;;;;;5110171;28;20651;-63
2022/07/06 00:41:32;;;;;;;4.65;4.07;;;18.80;99.90;;;;;;5114208;28;20218;-65
2022/07/06 00:43:59;;;;;;;4.55;4.18;;;18.80;99.90;;;;;;5110552;28;20211;-65
2022/07/06 00:46:29;;;;;;;4.30;3.90;;;18.90;99.90;;;;;;5114898;28;20242;-65
2022/07/06 00:48:58;;;;;;;4.90;3.92;;;18.90;99.90;;;;;;5114646;28;20218;-65
2022/07/06 00:51:28;;;;;;;4.40;4.00;;;18.90;99.90;;;;;;5114674;28;20207;-65
2022/07/06 00:53:58;;;;;;;4.47;3.97;;;18.90;99.90;;;;;;5113841;28;20206;-65
2022/07/06 00:56:27;;;;;;;5.65;3.95;;;18.80;99.90;;;;;;5114535;28;20215;-65
2022/07/06 00:58:54;;;;;;;3.67;3.30;;;18.80;99.90;;;;;;5112882;28;20246;-64
2022/07/06 01:01:21;;;;;;;4.60;3.10;;;18.80;99.90;;;;;;5114000;28;20204;-64
2022/07/06 01:03:47;;;;;;;5.00;3.50;;;18.80;99.90;;;;;;5113409;28;20207;-64
2022/07/06 01:06:17;;;;;;;4.78;3.70;;;18.70;99.90;;;;;;5114178;28;20234;-66
2022/07/06 01:08:43;;;;;;;5.10;3.65;;;18.70;99.90;;;;;;5114456;28;20228;-66
2022/07/06 01:11:11;;;;;;;3.70;3.33;;;18.70;99.90;;;;;;5112181;28;20231;-65
2022/07/06 01:13:38;;;;;;;3.50;3.28;;;18.60;99.90;;;;;;5112285;28;20215;-66
2022/07/06 01:16:05;;;;;;;4.40;3.42;;;18.60;99.90;;;;;;5114597;28;20207;-66
2022/07/06 01:18:33;;;;;;;3.30;2.97;;;18.60;99.90;;;;;;5114903;28;20211;-66
2022/07/06 01:21:09;;;;;;;3.80;3.10;;;18.60;99.90;;;;;;5114646;28;20670;-65
2022/07/06 01:23:41;;;;;;;3.65;3.17;;;18.50;99.90;;;;;;5113375;28;20616;-64
2022/07/06 01:26:10;;;;;;;3.58;3.28;;;18.60;99.90;;;;;;5113668;28;20770;-66
2022/07/06 01:28:37;;;;;;;5.50;3.22;;;18.60;99.90;;;;;;5112931;28;20644;-65
2022/07/06 01:31:04;;;;;;;4.45;3.40;;;18.60;99.90;;;;;;5114366;28;20648;-67
2022/07/06 01:33:30;;;;;;;5.00;3.47;;;18.60;99.90;;;;;;5114094;28;20214;-65
2022/07/06 01:35:57;;;;;;;4.22;3.33;;;18.60;99.90;;;;;;5113362;28;20200;-65
2022/07/06 01:38:25;;;;;;;4.78;3.35;;;18.60;99.90;;;;;;5113508;28;20219;-66
2022/07/06 01:40:52;;;;;;;3.78;3.47;;;18.60;99.90;;;;;;5113471;28;20204;-66
2022/07/06 01:43:19;;;;;;;3.70;3.40;;;18.60;99.90;;;;;;5113993;28;20652;-66
2022/07/06 01:45:45;;;;;;;6.57;3.90;;;18.60;99.90;;;;;;5112046;28;20220;-64
2022/07/06 01:48:12;;;;;;;5.45;3.20;;;18.70;99.90;;;;;;5112670;28;20207;-66
2022/07/06 01:50:39;;;;;;;4.57;3.67;;;18.70;99.90;;;;;;5112223;28;20515;-65
2022/07/06 01:53:06;;;;;;;4.13;3.63;;;18.70;99.90;;;;;;5112747;28;20207;-65
2022/07/06 01:55:34;;;;;;;3.90;3.55;;;18.70;99.90;;;;;;5112719;28;20204;-65
2022/07/06 01:58:00;;;;;;;5.90;3.40;;;18.70;99.90;;;;;;5113803;28;20204;-65
2022/07/06 02:00:27;;;;;;;4.75;3.55;;;18.70;99.90;;;;;;5113467;28;20555;-66
2022/07/06 02:02:54;;;;;;;5.38;3.72;;;18.70;99.90;;;;;;5112249;28;20214;-65
2022/07/06 02:05:21;;;;;;;3.55;3.25;;;18.60;99.90;;;;;;5113142;28;20204;-65
2022/07/06 02:07:48;;;;;;;3.83;3.03;;;18.70;99.90;;;;;;5099503;28;20714;-65
2022/07/06 02:10:14;;;;;;;3.60;3.30;;;18.70;99.90;;;;;;5112643;28;20244;-66
2022/07/06 02:12:42;;;;;;;6.10;3.72;;;18.70;99.90;;;;;;5113136;28;20199;-65
2022/07/06 02:15:10;;;;;;;5.22;3.40;;;18.70;99.90;;;;;;5112935;28;20200;-64
2022/07/06 02:17:36;;;;;;;4.18;2.95;;;18.70;99.90;;;;;;5113713;28;20671;-65
2022/07/06 02:20:05;;;;;;;4.03;3.67;;;18.60;99.90;;;;;;5111577;28;20564;-65
2022/07/06 02:22:32;;;;;;;4.80;3.25;;;18.60;99.90;;;;;;5113327;28;20204;-64
2022/07/06 02:24:59;;;;;;;5.18;3.50;;;18.60;99.90;;;;;;5111652;28;20215;-65
2022/07/06 02:27:25;;;;;;;4.30;3.28;;;18.60;99.90;;;;;;5112882;28;20679;-65
2022/07/06 02:29:54;;;;;;;5.13;3.08;;;18.60;99.90;;;;;;5112356;28;20236;-65
2022/07/06 02:32:20;;;;;;;4.15;3.00;;;18.60;99.90;;;;;;5113071;28;20562;-65
2022/07/06 02:34:47;;;;;;;3.45;3.22;;;18.60;99.90;;;;;;5111531;28;20691;-65
2022/07/06 02:37:14;;;;;;;5.30;3.13;;;18.60;99.90;;;;;;5112099;28;20204;-65
2022/07/06 02:39:41;;;;;;;3.67;3.38;;;18.60;99.90;;;;;;5112464;28;20633;-65
2022/07/06 02:42:08;;;;;;;3.30;2.97;;;18.50;99.90;;;;;;5113096;28;20579;-65
2022/07/06 02:44:34;;;;;;;4.65;3.30;;;18.60;99.90;;;;;;5113490;28;20212;-65
2022/07/06 02:47:03;;;;;;;4.90;3.00;;;18.50;99.90;;;;;;5112345;28;20212;-65
2022/07/06 02:49:29;;;;;;;3.55;3.25;;;18.50;99.90;;;;;;5113204;28;20290;-64
2022/07/06 02:51:56;;;;;;;3.15;2.95;;;18.50;99.90;;;;;;5110928;28;20208;-66
2022/07/06 02:54:23;;;;;;;3.90;3.20;;;18.40;99.90;;;;;;5112305;28;20645;-66
2022/07/06 02:56:52;;;;;;;3.28;2.97;;;18.40;99.90;;;;;;5112599;28;20204;-65
2022/07/06 02:59:19;;;;;;;4.38;2.85;;;18.40;99.90;;;;;;5099519;28;20551;-65
2022/07/06 03:01:46;;;;;;;3.60;3.30;;;18.40;99.90;;;;;;5113159;28;20245;-66
2022/07/06 03:04:14;;;;;;;3.72;3.42;;;18.40;99.90;;;;;;5112922;28;20199;-65
2022/07/06 03:06:41;;;;;;;3.50;3.20;;;18.40;99.90;;;;;;5102680;28;20224;-65
2022/07/06 03:09:07;;;;;;;5.13;3.30;;;18.40;99.90;;;;;;5107926;28;20231;-66
2022/07/06 03:11:35;;;;;;;4.33;3.17;;;18.40;99.90;;;;;;5113101;28;20556;-66
2022/07/06 03:14:03;;;;;;;3.75;3.45;;;18.40;99.90;;;;;;5113162;28;20207;-65
2022/07/06 03:16:29;;;;;;;3.60;3.30;;;18.40;99.90;;;;;;5113739;28;20192;-66
2022/07/06 03:18:57;;;;;;;3.58;2.78;;;18.40;99.90;;;;;;5111555;28;20211;-64
2022/07/06 03:21:25;;;;;;;3.28;2.97;;;18.30;99.90;;;;;;5097353;28;20227;-64
2022/07/06 03:23:51;;;;;;;4.15;2.78;;;18.30;99.90;;;;;;5111796;28;20210;-65
2022/07/06 03:26:18;;;;;;;3.05;2.78;;;18.30;99.90;;;;;;5112484;28;20691;-65
2022/07/06 03:28:45;;;;;;;3.40;3.10;;;18.30;99.90;;;;;;5111397;28;20211;-65
2022/07/06 03:31:12;;;;;;;2.92;2.70;;;18.30;99.90;;;;;;5112746;28;20215;-66
2022/07/06 03:33:39;;;;;;;2.40;2.17;;;18.40;99.90;;;;;;5111433;28;20211;-65
2022/07/06 03:36:07;;;;;;;2.90;2.70;;;18.40;99.90;;;;;;5111725;28;20204;-65
2022/07/06 03:38:35;;;;;;;2.70;2.50;;;18.40;99.90;;;;;;5106332;28;20648;-64
2022/07/06 03:41:02;;;;;;;2.77;2.57;;;18.40;99.90;;;;;;5111876;28;20226;-66
2022/07/06 03:43:29;;;;;;;2.28;2.10;;;18.40;99.90;;;;;;5111867;28;20582;-64
2022/07/06 03:45:55;;;;;;;4.20;2.75;;;18.40;99.90;;;;;;5111923;28;20451;-65
2022/07/06 03:48:22;;;;;;;2.37;2.17;;;18.40;99.90;;;;;;5110875;28;20243;-65
2022/07/06 03:50:49;;;;;;;2.70;2.30;;;18.40;99.90;;;;;;5110796;28;20212;-65
2022/07/06 03:53:16;;;;;;;4.15;2.50;;;18.40;99.90;;;;;;5109776;28;20203;-64
2022/07/06 03:56:27;;;;;;;2.67;2.47;;;18.50;99.90;;;;;;5109706;28;20207;-66
2022/07/06 03:58:30;;;;;;;3.00;2.15;;;18.50;99.90;;;;;;5110211;28;20203;-65
2022/07/06 04:00:57;;;;;;;3.25;2.20;;;18.40;99.90;;;;;;5111496;28;20643;-65
2022/07/06 04:03:24;;;;;;;3.28;2.47;;;18.40;99.90;;;;;;5111724;28;20207;-65
2022/07/06 04:05:50;;;;;;;3.28;2.38;;;18.40;99.90;;;;;;5111407;28;20679;-66
2022/07/06 04:08:17;;;;;;;3.63;2.50;;;18.50;99.90;;;;;;5109003;28;20240;-64
2022/07/06 04:10:45;;;;;;;2.88;2.30;;;18.40;99.90;;;;;;5110960;28;20242;-64
2022/07/06 04:13:13;;;;;;;5.82;2.85;;;18.40;99.90;;;;;;5108275;28;20647;-63
2022/07/06 04:15:40;;;;;;;3.40;2.10;;;18.50;99.90;;;;;;5110382;28;20990;-65
2022/07/06 04:18:07;;;;;;;2.58;2.30;;;18.50;99.90;;;;;;5110541;28;20231;-65
2022/07/06 04:20:34;;;;;;;2.40;2.20;;;18.50;99.90;;;;;;5111230;28;20565;-65
2022/07/06 04:23:01;;;;;;;2.90;2.42;;;18.40;99.90;;;;;;5111116;28;20235;-65
2022/07/06 04:25:28;;;;;;;2.95;2.10;;;18.40;99.90;;;;;;5111491;28;20207;-64
2022/07/06 04:27:56;;;;;;;2.20;2.00;;;18.40;99.90;;;;;;5106916;28;20231;-64
2022/07/06 04:30:23;;;;;;;2.53;2.30;;;18.40;99.90;;;;;;5097174;28;20635;-65
2022/07/06 04:32:50;;;;;;;2.05;1.92;;;18.40;99.90;;;;;;5111558;28;20196;-64
2022/07/06 04:35:16;;;;;;;3.92;2.58;;;18.40;99.90;;;;;;5110656;28;20207;-64
2022/07/06 04:37:45;;;;;;;2.55;2.28;;;18.50;99.90;;;;;;5109857;28;20192;-65
2022/07/06 04:40:12;;;;;;;2.33;2.05;;;18.50;99.90;;;;;;5111222;28;20670;-66
2022/07/06 04:42:39;;;;;;;5.50;2.55;;;18.50;99.90;;;;;;5110184;28;20214;-65
2022/07/06 04:45:09;;;;;;;3.47;2.33;;;18.60;99.90;;;;;;5110300;28;20652;-64
2022/07/06 04:47:36;;;;;;;5.45;2.13;;;18.60;99.90;;;;;;5109562;28;20224;-65
2022/07/06 04:50:03;;;;;;;3.25;2.50;;;18.60;99.90;;;;;;5110902;28;20723;-65
2022/07/06 04:52:30;;;;;;;3.63;2.40;;;18.70;99.90;;;;;;5110838;28;20211;-64
2022/07/06 04:54:57;;;;;;;2.90;2.67;;;18.70;99.90;;;;;;5110917;28;20204;-66
2022/07/06 04:57:25;;;;;;;2.20;2.00;;;18.60;99.90;;;;;;5108845;28;20200;-64
2022/07/06 04:59:52;;;;;;;2.60;2.40;;;18.70;99.90;;;;;;5110141;28;20215;-66
2022/07/06 05:02:20;;;;;;;3.60;2.58;;;18.70;99.90;;;;;;5107851;28;20214;-65
2022/07/06 05:04:47;;;;;;;3.45;2.58;;;18.70;99.90;;;;;;5111119;28;20571;-65
2022/07/06 05:07:14;;;;;;;4.47;2.60;;;18.70;99.90;;;;;;5110924;28;20220;-66
2022/07/06 05:09:40;;;;;;;3.10;2.30;;;18.70;99.90;;;;;;5110273;28;20231;-65
2022/07/06 05:12:08;;;;;;;2.90;2.30;;;18.70;99.90;;;;;;5110268;28;20211;-65
2022/07/06 05:14:35;;;;;;;2.28;2.05;;;18.80;99.90;;;;;;5110621;28;20200;-65
2022/07/06 05:17:02;;;;;;;2.53;2.20;;;18.80;99.90;;;;;;5102481;28;20696;-65
2022/07/06 05:19:30;;;;;;;3.92;2.75;;;18.80;99.90;;;;;;5109989;28;20671;-65
2022/07/06 05:21:57;;;;;;;4.05;2.22;;;18.90;99.90;;;;;;5110832;28;20687;-67
2022/07/06 05:24:24;;;;;;;2.47;2.28;;;18.90;99.90;;;;;;5109983;28;20212;-66
2022/07/06 05:26:51;;;;;;;4.95;2.63;;;18.90;99.90;;;;;;5112425;28;20208;-65
2022/07/06 05:29:17;;;;;;;2.88;1.90;;;19.00;99.90;;;;;;5113125;28;20234;-65
2022/07/06 05:31:44;;;;;;;2.88;2.13;;;19.00;99.90;;;;;;5111582;28;20261;-66
2022/07/06 05:34:11;;;;;;;2.50;2.00;;;19.10;99.90;;;;;;5110453;28;20601;-65
2022/07/06 05:36:39;;;;;;;3.83;2.15;;;19.10;99.90;;;;;;5114142;28;20557;-65
2022/07/06 05:39:06;;;;;;;3.03;1.67;;;19.20;99.90;;;;;;5114499;28;20215;-66
2022/07/06 05:41:32;;;;;;;2.22;2.13;;;19.20;99.90;;;;;;5113804;28;20215;-66
2022/07/06 05:43:59;;;;;;;3.95;2.55;;;19.20;99.90;;;;;;5114152;28;20694;-65
2022/07/06 05:46:26;;;;;;;4.70;2.65;;;19.20;99.90;;;;;;5113071;28;20211;-66
2022/07/06 05:51:38;;;;;;;3.40;2.40;;;19.10;99.90;;;;;;5112713;28;20525;-65
2022/07/06 05:54:05;;;;;;;3.15;2.63;;;19.20;99.90;;;;;;5113811;28;20200;-64
2022/07/06 05:56:32;;;;;;;4.28;3.03;;;19.10;99.90;;;;;;5113728;28;20211;-66
2022/07/06 05:58:58;;;;;;;2.40;2.20;;;19.10;99.90;;;;;;5113815;28;20680;-65
2022/07/06 06:01:25;;;;;;;3.22;1.73;;;19.00;99.90;;;;;;5112197;28;20229;-66
2022/07/06 06:03:52;;;;;;;4.03;2.20;;;19.00;99.90;;;;;;5112967;28;20589;-66
2022/07/06 06:06:19;;;;;;;1.77;1.67;;;19.00;99.90;;;;;;5111442;28;20199;-65
2022/07/06 06:08:47;;;;;;;2.30;2.13;;;19.10;99.90;;;;;;5114128;28;20227;-64
2022/07/06 06:11:14;;;;;;;4.13;2.15;;;19.20;99.90;;;;;;5112642;28;20228;-65
2022/07/06 06:13:41;;;;;;;2.47;2.20;;;19.20;99.90;;;;;;5114105;28;20219;-65
2022/07/06 06:16:07;;;;;;;2.50;2.00;;;19.30;99.90;;;;;;5111772;28;20556;-65
2022/07/06 06:18:34;;;;;;;4.50;2.28;;;19.40;99.90;;;;;;5113025;28;20769;-65
2022/07/06 06:21:01;;;;;;;2.80;2.55;;;19.50;99.90;;;;;;5108766;28;20857;-65
2022/07/06 06:23:28;;;;;;;2.65;2.45;;;19.50;99.90;;;;;;5112019;28;20204;-64
2022/07/06 06:25:56;;;;;;;4.95;3.22;;;19.50;99.90;;;;;;5113224;28;20634;-65
2022/07/06 06:28:23;;;;;;;3.97;3.17;;;19.40;99.90;;;;;;5111145;28;20230;-66
2022/07/06 06:30:50;;;;;;;6.28;3.58;;;19.40;99.90;;;;;;5111546;28;20207;-65
2022/07/06 06:33:18;;;;;;;4.57;3.35;;;19.50;99.90;;;;;;5113115;28;20211;-66
2022/07/06 06:35:46;;;;;;;5.05;3.42;;;19.60;99.90;;;;;;5112973;28;20204;-66
2022/07/06 06:38:14;;;;;;;3.42;3.10;;;19.70;99.90;;;;;;5110675;28;20615;-66
2022/07/06 06:40:41;;;;;;;3.10;2.80;;;19.90;99.90;;;;;;5110949;28;20595;-64
2022/07/06 06:43:09;;;;;;;3.33;3.03;;;20.00;99.90;;;;;;5113703;28;20675;-65
2022/07/06 06:45:36;;;;;;;3.50;3.08;;;20.10;99.90;;;;;;5111744;28;20200;-65
2022/07/06 06:48:03;;;;;;;5.55;3.00;;;20.20;99.90;;;;;;5112117;28;20230;-67
2022/07/06 06:50:30;;;;;;;3.33;3.03;;;20.30;99.90;;;;;;5108269;28;20220;-65
2022/07/06 06:52:57;;;;;;;6.80;3.80;;;20.40;99.90;;;;;;5109766;28;20270;-65
2022/07/06 06:55:25;;;;;;;4.28;3.58;;;20.60;99.90;;;;;;5110899;28;20271;-65
2022/07/06 06:57:51;;;;;;;3.78;3.03;;;20.70;99.90;;;;;;5112492;28;20662;-65
2022/07/06 07:00:20;;;;;;;3.88;3.10;;;20.80;99.90;;;;;;5108032;28;20218;-66
2022/07/06 07:02:47;;;;;;;4.70;3.58;;;20.90;99.90;;;;;;5108360;28;20208;-64
2022/07/06 07:05:14;;;;;;;6.68;3.65;;;20.90;99.90;;;;;;5113173;28;20276;-65
2022/07/06 07:07:41;;;;;;;7.97;3.90;;;20.90;99.90;;;;;;5109476;28;20686;-65
2022/07/06 07:10:09;;;;;;;5.50;3.85;;;21.00;99.90;;;;;;5110830;28;20238;-64
2022/07/06 07:12:35;;;;;;;4.20;3.40;;;21.10;99.90;;;;;;5114107;27;20208;-65
2022/07/06 07:15:02;;;;;;;9.43;3.60;;;21.30;99.90;;;;;;5110994;28;20602;-65
2022/07/06 07:17:31;;;;;;;4.93;4.07;;;21.40;99.90;;;;;;5105335;27;20200;-65
2022/07/06 07:19:58;;;;;;;6.72;4.82;;;21.50;99.90;;;;;;5106601;28;20207;-66
2022/07/06 07:22:25;;;;;;;6.82;4.72;;;21.50;99.90;;;;;;5109510;28;20218;-66
2022/07/06 07:24:52;;;;;;;4.47;4.03;;;21.60;99.90;;;;;;5106737;28;20318;-66
2022/07/06 07:27:19;;;;;;;8.93;4.78;;;21.60;99.90;;;;;;5105024;28;20212;-65
2022/07/06 07:29:45;;;;;;;5.85;4.57;;;21.70;99.90;;;;;;5110311;28;20690;-65
2022/07/06 07:32:12;;;;;;;4.70;3.90;;;21.80;99.90;;;;;;5109689;28;20219;-65
2022/07/06 07:34:40;;;;;;;6.60;4.20;;;22.00;99.90;;;;;;5109046;28;20209;-65
2022/07/06 07:37:07;;;;;;;6.60;4.53;;;22.10;99.90;;;;;;5108190;27;20215;-65
2022/07/06 07:39:34;;;;;;;6.93;4.80;;;22.10;99.90;;;;;;5107378;28;20221;-66
2022/07/06 07:42:00;;;;;;;5.13;3.85;;;22.10;99.90;;;;;;5108796;28;20212;-65
2022/07/06 07:44:27;;;;;;;7.88;4.35;;;22.10;99.90;;;;;;5111299;28;20282;-65
2022/07/06 07:46:54;;;;;;;4.32;3.88;;;22.00;99.90;;;;;;5108532;28;20204;-64
2022/07/06 07:49:21;;;;;;;3.92;3.38;;;21.90;99.90;;;;;;5108043;28;20227;-66
2022/07/06 07:51:49;;;;;;;5.20;3.50;;;21.90;99.90;;;;;;5108700;28;20239;-65
2022/07/06 07:54:16;;;;;;;6.38;3.20;;;21.80;99.90;;;;;;5109032;28;20231;-65
2022/07/06 07:56:43;;;;;;;3.92;2.35;;;21.90;99.90;;;;;;5106150;28;20212;-65
2022/07/06 07:59:10;;;;;;;4.43;2.58;;;21.90;99.90;;;;;;5107724;28;20208;-65
2022/07/06 08:01:37;;;;;;;7.85;2.20;;;21.90;99.90;;;;;;5107623;28;20204;-65
2022/07/06 08:04:04;;;;;;;2.58;2.28;;;22.00;99.90;;;;;;5109318;28;20655;-65
2022/07/06 08:06:31;;;;;;;8.50;2.20;;;22.20;99.90;;;;;;5108351;28;20586;-64
2022/07/06 08:09:00;;;;;;;4.90;2.13;;;22.30;99.90;;;;;;5107862;28;20231;-64
2022/07/06 08:11:26;;;;;;;2.95;1.63;;;22.50;99.90;;;;;;5110068;28;20674;-65
2022/07/06 08:13:53;;;;;;;3.28;1.88;;;22.60;99.90;;;;;;5103122;28;20692;-65
2022/07/06 08:16:20;;;;;;;4.57;1.75;;;22.70;99.90;;;;;;5105866;28;20577;-64
2022/07/06 08:18:47;;;;;;;3.55;1.67;;;22.80;99.90;;;;;;5107629;28;20219;-65
2022/07/06 08:21:14;;;;;;;2.83;1.50;;;22.90;99.90;;;;;;5103215;28;20200;-66
2022/07/06 08:23:40;;;;;;;1.65;1.45;;;23.10;99.90;;;;;;5108539;28;20295;-65
2022/07/06 08:26:09;;;;;;;3.70;1.45;;;23.20;99.90;;;;;;5108052;28;20203;-66
2022/07/06 08:28:35;;;;;;;2.33;1.40;;;23.30;99.90;;;;;;5105744;28;20219;-65
2022/07/06 08:31:02;;;;;;;3.80;1.10;;;23.30;99.90;;;;;;5106622;28;20207;-66
2022/07/06 08:33:29;;;;;;;3.47;1.52;;;23.20;99.90;;;;;;5109763;28;20213;-67
2022/07/06 08:35:56;;;;;;;4.18;1.40;;;23.20;99.90;;;;;;5105564;28;20207;-65
2022/07/06 08:38:23;;;;;;;2.97;1.25;;;23.30;99.90;;;;;;5107210;28;20199;-65
2022/07/06 08:40:51;;;;;;;2.03;1.35;;;23.30;99.90;;;;;;5107746;28;20212;-65
2022/07/06 08:43:19;;;;;;;1.08;0.95;;;23.50;99.90;;;;;;5110884;28;20215;-64
2022/07/06 08:45:47;;;;;;;5.18;2.05;;;23.60;99.90;;;;;;5110663;28;20210;-66
2022/07/06 08:48:14;;;;;;;2.72;1.05;;;23.50;99.90;;;;;;5109336;28;20228;-65
2022/07/06 08:50:40;;;;;;;2.92;1.40;;;23.50;99.90;;;;;;5110601;28;20200;-67
2022/07/06 08:53:07;;;;;;;3.28;1.30;;;23.60;99.90;;;;;;5107915;28;20208;-65
2022/07/06 08:55:35;;;;;;;4.55;0.98;;;23.60;99.90;;;;;;5110883;28;20208;-65
2022/07/06 08:58:04;;;;;;;1.23;1.10;;;23.70;99.90;;;;;;5110744;28;20207;-65
2022/07/06 09:00:33;;;;;;;2.15;0.73;;;23.90;99.90;;;;;;5115821;28;20204;-65
2022/07/06 09:03:01;;;;;;;2.35;1.00;;;24.00;99.90;;;;;;5114878;28;20207;-65
2022/07/06 09:05:30;;;;;;;1.63;0.88;;;24.10;99.40;;;;;;5111886;28;20195;-65
2022/07/06 09:07:57;;;;;;;1.52;0.82;;;24.30;98.00;;;;;;5114866;28;20231;-64
2022/07/06 09:10:24;;;;;;;1.20;0.65;;;24.30;95.60;;;;;;5111392;28;20239;-66
2022/07/06 09:12:51;;;;;;;2.22;0.70;;;24.50;94.90;;;;;;5114733;28;20647;-65
2022/07/06 09:15:18;;;;;;;2.42;0.63;;;24.70;93.70;;;;;;5114518;28;20206;-64
2022/07/06 09:17:46;;;;;;;0.95;0.70;;;24.90;93.10;;;;;;5113956;28;20211;-64
2022/07/06 09:20:14;;;;;;;1.60;0.93;;;25.10;91.90;;;;;;5112277;28;20211;-64
2022/07/06 09:22:42;;;;;;;1.35;1.00;;;25.20;91.20;;;;;;5113970;28;20204;-65
2022/07/06 09:25:10;;;;;;;2.97;0.80;;;25.50;91.00;;;;;;5113550;28;20207;-65
2022/07/06 09:27:41;;;;;;;0.73;0.60;;;25.60;90.00;;;;;;5109511;28;20211;-65
2022/07/06 09:30:10;;;;;;;2.10;0.80;;;25.70;88.20;;;;;;5114230;28;20310;-65
2022/07/06 09:32:41;;;;;;;2.28;0.93;;;25.90;87.60;;;;;;5114589;28;20663;-66
2022/07/06 09:35:19;;;;;;;2.55;0.80;;;26.10;85.70;;;;;;5114558;28;20227;-64
2022/07/06 09:37:47;;;;;;;4.60;1.00;;;26.10;83.00;;;;;;5113993;28;20245;-65
2022/07/06 09:40:18;;;;;;;2.30;0.60;;;26.00;81.40;;;;;;5114260;28;20256;-64
2022/07/06 09:42:45;;;;;;;1.20;0.63;;;25.80;80.80;;;;;;5113840;28;20257;-65
2022/07/06 09:45:12;;;;;;;0.73;0.60;;;25.80;80.80;;;;;;5115102;28;20577;-65
2022/07/06 09:47:41;;;;;;;1.60;0.75;;;25.80;80.00;;;;;;5114465;28;20559;-65
2022/07/06 09:50:09;;;;;;;2.70;0.65;;;25.80;79.50;;;;;;5113463;28;20306;-65
2022/07/06 09:52:36;;;;;;;2.58;0.90;;;25.70;79.20;;;;;;5113981;28;20207;-65
2022/07/06 09:55:15;;;;;;;1.85;0.80;;;25.60;79.00;;;;;;5112595;28;20203;-65
2022/07/06 09:57:53;;;;;;;1.20;1.02;;;25.50;79.10;;;;;;5112271;28;20241;-65
2022/07/06 10:00:21;;;;;;;2.08;0.88;;;25.50;78.30;;;;;;5113315;28;20660;-65
2022/07/06 10:02:49;;;;;;;1.52;0.70;;;25.60;78.00;;;;;;5113346;28;20211;-64
2022/07/06 10:05:18;;;;;;;0.75;0.40;;;25.80;77.40;;;;;;5112486;28;20204;-65
2022/07/06 10:07:48;;;;;;;2.35;0.55;;;26.00;76.70;;;;;;5112813;28;20227;-65
2022/07/06 10:10:16;;;;;;;3.78;0.70;;;26.20;73.80;;;;;;5109964;28;20580;-65
2022/07/06 10:12:45;;;;;;;1.13;0.60;;;26.40;72.80;;;;;;5106207;28;20723;-66
2022/07/06 10:15:12;;;;;;;1.70;0.55;;;26.60;71.50;;;;;;5113237;28;20210;-64
2022/07/06 10:17:40;;;;;;;3.33;0.70;;;26.70;70.30;;;;;;5112776;28;20199;-65
2022/07/06 10:20:08;;;;;;;1.58;0.70;;;26.80;70.30;;;;;;5112467;28;20207;-65
2022/07/06 10:22:38;;;;;;;1.35;0.52;;;27.00;69.60;;;;;;5112626;28;20226;-67
2022/07/06 10:25:06;;;;;;;0.70;0.50;;;27.20;68.60;;;;;;5112996;28;20208;-65
2022/07/06 10:27:33;;;;;;;0.40;0.40;;;27.30;67.70;;;;;;5111963;28;20703;-65
2022/07/06 10:30:01;;;;;;;1.20;0.73;;;27.40;66.40;;;;;;5111810;28;20687;-65
2022/07/06 10:32:29;;;;;;;3.65;0.40;;;27.20;64.60;;;;;;5112773;28;20203;-66
2022/07/06 10:34:56;;;;;;;1.02;0.60;;;27.00;63.90;;;;;;5112933;28;20242;-65
2022/07/06 10:37:25;;;;;;;0.63;0.43;;;26.90;63.90;;;;;;5112832;28;20204;-65
2022/07/06 10:42:49;;;;;;;1.38;0.43;;;26.60;63.20;;;;;;5112527;28;20690;-65
2022/07/06 10:45:20;;;;;;;3.53;0.90;;;26.70;63.40;;;;;;5111042;28;20204;-66
2022/07/06 10:47:47;;;;;;;1.95;0.75;;;26.90;63.70;;;;;;5113129;28;20212;-65
2022/07/06 10:50:14;;;;;;;1.10;0.60;;;27.00;62.70;;;;;;5111988;28;20228;-65
2022/07/06 10:52:58;;;;;;;3.60;0.43;;;26.90;62.00;;;;;;5112682;28;20203;-65
2022/07/06 10:55:35;;;;;;;0.60;0.50;;;26.80;62.00;;;;;;5112701;28;20214;-65
2022/07/06 10:58:02;;;;;;;0.73;0.57;;;26.80;63.40;;;;;;5109448;28;20212;-65
2022/07/06 11:00:50;;;;;;;2.42;0.68;;;26.80;63.30;;;;;;5111911;28;20208;-65
2022/07/06 11:03:34;;;;;;;1.88;0.57;;;26.80;63.30;;;;;;5109571;28;20208;-65
2022/07/06 11:06:02;;;;;;;1.10;0.52;;;26.80;62.30;;;;;;5112307;28;20212;-65
2022/07/06 11:08:45;;;;;;;1.85;0.47;;;26.90;61.60;;;;;;5112193;28;20238;-65
2022/07/06 11:11:16;;;;;;;0.73;0.60;;;27.10;61.40;;;;;;5097473;28;20240;-67
2022/07/06 11:13:48;;;;;;;1.90;0.85;;;27.40;61.00;;;;;;5112611;28;20551;-65
2022/07/06 11:16:15;;;;;;;0.90;0.65;;;27.50;61.20;;;;;;5111264;28;20216;-65
2022/07/06 11:18:46;;;;;;;1.50;0.52;;;27.60;60.60;;;;;;5110079;28;20876;-64
2022/07/06 11:21:21;;;;;;;1.48;0.70;;;27.50;59.50;;;;;;5109968;28;20200;-65
2022/07/06 11:23:49;;;;;;;1.63;0.70;;;27.40;59.50;;;;;;5111664;28;20207;-66
2022/07/06 11:26:18;;;;;;;2.33;1.00;;;27.50;59.70;;;;;;5110785;28;20200;-66
2022/07/06 11:28:48;;;;;;;1.27;0.50;;;27.60;59.20;;;;;;5108766;28;20207;-66
2022/07/06 11:31:15;;;;;;;1.08;0.65;;;27.60;58.70;;;;;;5112317;28;20212;-66
2022/07/06 11:33:45;;;;;;;1.52;0.63;;;27.40;59.20;;;;;;5107710;28;20220;-65
2022/07/06 11:36:16;;;;;;;3.30;1.25;;;27.50;59.10;;;;;;5108371;28;20204;-65
2022/07/06 11:38:44;;;;;;;2.45;0.50;;;27.30;58.50;;;;;;5106666;28;20212;-64
2022/07/06 11:41:13;;;;;;;4.40;0.85;;;27.20;58.70;;;;;;5102721;28;20212;-64
2022/07/06 11:43:44;;;;;;;1.45;0.70;;;26.80;58.50;;;;;;5110482;28;20200;-67
2022/07/06 11:46:22;;;;;;;2.78;0.90;;;26.60;59.30;;;;;;5110533;28;20196;-67
2022/07/06 11:48:49;;;;;;;2.38;1.25;;;26.40;59.80;;;;;;5110813;28;20212;-65
2022/07/06 11:51:16;;;;;;;2.22;0.60;;;26.50;60.50;;;;;;5111643;28;20219;-65
2022/07/06 11:53:47;;;;;;;1.65;0.90;;;26.70;60.60;;;;;;5109294;28;20203;-65
2022/07/06 11:56:15;;;;;;;2.88;0.88;;;26.70;59.90;;;;;;5110833;28;20214;-66
2022/07/06 11:58:46;;;;;;;2.53;0.52;;;26.70;59.90;;;;;;5111150;28;20618;-65
2022/07/06 12:01:14;;;;;;;0.57;0.40;;;26.80;59.60;;;;;;5111495;28;20579;-64
2022/07/06 12:03:41;;;;;;;0.50;0.50;;;26.70;59.20;;;;;;5110948;28;20279;-65
2022/07/06 12:06:14;;;;;;;1.13;0.50;;;26.60;59.30;;;;;;5110891;28;20249;-65
2022/07/06 12:08:46;;;;;;;1.13;0.60;;;26.50;59.70;;;;;;5110802;28;20224;-65
2022/07/06 12:11:20;;;;;;;1.05;0.65;;;26.50;60.30;;;;;;5107070;28;20236;-65
2022/07/06 12:13:49;;;;;;;0.65;0.65;;;26.60;59.80;;;;;;5110251;28;20264;-65
2022/07/06 12:16:16;;;;;;;1.55;0.40;;;26.70;59.90;;;;;;5110895;28;20686;-65
2022/07/06 12:18:45;;;;;;;1.13;0.60;;;26.70;59.40;;;;;;5106516;28;20226;-64
2022/07/06 12:21:14;;;;;;;1.52;0.60;;;26.60;59.30;;;;;;5106961;28;20497;-65
2022/07/06 12:23:42;;;;;;;2.17;0.77;;;26.60;59.10;;;;;;5110925;28;20648;-65
2022/07/06 12:26:09;;;;;;;2.53;0.77;;;26.50;59.70;;;;;;5108718;28;20216;-66
2022/07/06 12:28:36;;;;;;;1.02;0.70;;;26.50;59.70;;;;;;5109609;28;20299;-65
2022/07/06 12:31:05;;;;;;;2.97;0.85;;;26.60;59.80;;;;;;5110227;28;20284;-64
2022/07/06 12:33:31;;;;;;;1.67;0.65;;;26.70;59.90;;;;;;5110039;28;20309;-65
2022/07/06 12:36:10;;;;;;;1.88;0.60;;;26.90;59.30;;;;;;5110018;28;20273;-65
2022/07/06 12:38:44;;;;;;;0.45;0.45;;;27.10;58.40;;;;;;5111027;28;20200;-65
2022/07/06 12:41:11;;;;;;;2.83;1.00;;;27.10;57.90;;;;;;5110546;28;20227;-66
2022/07/06 12:43:39;;;;;;;1.70;1.00;;;27.20;57.50;;;;;;5109099;28;20200;-64
2022/07/06 12:46:29;;;;;;;1.38;0.50;;;27.20;58.20;;;;;;5107678;28;20708;-64
2022/07/06 12:48:57;;;;;;;1.15;0.68;;;27.30;57.40;;;;;;5108453;28;20201;-65
2022/07/06 12:51:24;;;;;;;1.73;0.68;;;27.30;57.10;;;;;;5110622;28;20215;-65
2022/07/06 12:53:51;;;;;;;1.38;0.60;;;27.30;57.00;;;;;;5108718;28;20294;-65
2022/07/06 12:56:19;;;;;;;1.85;0.80;;;27.30;56.90;;;;;;5110507;28;20223;-65
2022/07/06 12:58:59;;;;;;;1.75;0.60;;;27.30;56.00;;;;;;5110416;28;20208;-66